createdAt,value
2023-01-19T00:00:44.662Z,98682.52
2023-01-19T00:06:08.377Z,98700.96
2023-01-19T00:11:12.826Z,98724.73
2023-01-19T00:16:20.046Z,98733.02
2023-01-19T00:21:23.516Z,98752.67
2023-01-19T00:26:26.528Z,98767.13
2023-01-19T00:31:30.248Z,98778.85
2023-01-19T00:36:33.996Z,98790.23
2023-01-19T00:41:55.512Z,98802.30
2023-01-19T00:46:58.520Z,98812.45
2023-01-19T00:52:01.745Z,98820.55
2023-01-19T00:57:05.147Z,98828.31
2023-01-19T01:02:08.661Z,98832.11
2023-01-19T01:07:11.874Z,98842.45
2023-01-19T01:12:14.983Z,98842.63
2023-01-19T01:17:18.278Z,98842.11
2023-01-19T01:22:21.196Z,98851.92
2023-01-19T01:27:24.107Z,98867.42
2023-01-19T01:32:27.108Z,98877.06
2023-01-19T01:37:30.112Z,98889.27
2023-01-19T01:42:34.698Z,98894.11
2023-01-19T01:47:47.802Z,98901.83
2023-01-19T01:53:14.116Z,98907.17
2023-01-19T01:58:17.433Z,98922.15
2023-01-19T02:03:23.459Z,98927.30
2023-01-19T02:09:37.622Z,98940.03
2023-01-19T02:14:40.623Z,98940.20
2023-01-19T02:19:44.015Z,98939.52
2023-01-19T02:24:47.265Z,98943.48
2023-01-19T02:29:50.269Z,98952.06
2023-01-19T02:34:53.575Z,98961.88
2023-01-19T02:39:59.347Z,98967.73
2023-01-19T02:45:06.881Z,98965.14
2023-01-19T02:50:29.559Z,98955.34
2023-01-19T02:55:34.340Z,98948.29
2023-01-19T03:00:48.086Z,98958.10
2023-01-19T03:05:57.149Z,98954.66
2023-01-19T03:11:08.388Z,98953.11
2023-01-19T03:16:34.548Z,98959.46
2023-01-19T03:21:40.716Z,98955.19
2023-01-19T03:26:49.349Z,98948.80
2023-01-19T03:31:54.140Z,98939.35
2023-01-19T03:37:02.491Z,98949.33
2023-01-19T03:42:09.636Z,98940.03
2023-01-19T03:47:15.134Z,98938.32
2023-01-19T03:52:18.102Z,98939.52
2023-01-19T03:57:21.417Z,98932.80
2023-01-19T04:02:25.182Z,98923.50
2023-01-19T04:07:28.650Z,98921.75
2023-01-19T04:12:31.768Z,98930.48
2023-01-19T04:17:34.873Z,98941.79
2023-01-19T04:22:39.317Z,98944.33
2023-01-19T04:27:42.417Z,98952.52
2023-01-19T04:32:45.629Z,98957.12
2023-01-19T04:37:48.749Z,98974.80
2023-01-19T04:42:51.847Z,98987.55
2023-01-19T04:47:54.955Z,98979.88
2023-01-19T04:52:58.477Z,98989.39
2023-01-19T04:58:01.705Z,99003.86
2023-01-19T05:03:05.396Z,99006.98
2023-01-19T05:08:08.828Z,99003.23
2023-01-19T05:13:11.831Z,99000.52
2023-01-19T05:18:14.835Z,99003.61
2023-01-19T05:23:18.052Z,99006.52
2023-01-19T05:28:21.873Z,99013.59
2023-01-19T05:33:25.597Z,99018.41
2023-01-19T05:38:35.390Z,99024.59
2023-01-19T05:43:38.882Z,99036.45
2023-01-19T05:48:41.784Z,99048.64
2023-01-19T05:53:44.994Z,99060.67
2023-01-19T05:58:48.101Z,99066.15
2023-01-19T06:03:51.211Z,99073.54
2023-01-19T06:08:54.636Z,99090.18
2023-01-19T06:13:57.747Z,99099.98
2023-01-19T06:19:00.742Z,99108.73
2023-01-19T06:24:04.362Z,99116.97
2023-01-19T06:29:07.275Z,99124.34
2023-01-19T06:34:10.954Z,99129.96
2023-01-19T06:39:13.892Z,99138.01
2023-01-19T06:44:17.009Z,99152.75
2023-01-19T06:49:20.013Z,99151.34
2023-01-19T06:54:23.117Z,99151.66
2023-01-19T06:59:26.329Z,99159.55
2023-01-19T07:04:29.441Z,99161.11
2023-01-19T07:09:32.348Z,99174.52
2023-01-19T07:14:35.355Z,99187.23
2023-01-19T07:19:38.353Z,99192.06
2023-01-19T07:24:41.685Z,99207.89
2023-01-19T07:29:44.676Z,99236.94
2023-01-19T07:34:47.889Z,99247.79
2023-01-19T07:39:50.997Z,99248.32
2023-01-19T07:44:54.103Z,99249.55
2023-01-19T07:49:57.166Z,99252.64
2023-01-19T07:55:00.037Z,99255.90
2023-01-19T08:00:05.124Z,99242.89
2023-01-19T08:05:08.677Z,99247.55
2023-01-19T08:10:13.624Z,99252.36
2023-01-19T08:15:16.684Z,99249.13
2023-01-19T08:20:19.662Z,99250.37
2023-01-19T08:25:23.690Z,99244.56
2023-01-19T08:30:27.074Z,99244.42
2023-01-19T08:35:43.455Z,99243.63
2023-01-19T08:40:46.948Z,99250.89
2023-01-19T08:45:53.451Z,99258.50
2023-01-19T08:50:57.187Z,99271.96
2023-01-19T08:56:01.485Z,99280.25
2023-01-19T09:01:05.457Z,99278.77
2023-01-19T09:06:10.364Z,99281.02
2023-01-19T09:11:15.118Z,99283.98
2023-01-19T09:16:18.460Z,99292.26
2023-01-19T09:21:21.644Z,99295.21
2023-01-19T09:26:24.754Z,99286.96
2023-01-19T09:31:27.858Z,99279.27
2023-01-19T09:36:31.170Z,99281.19
2023-01-19T09:41:36.847Z,99290.20
2023-01-19T09:46:44.516Z,99287.98
2023-01-19T09:51:50.646Z,99289.73
2023-01-19T09:56:54.354Z,99281.83
2023-01-19T10:02:33.522Z,99283.20
2023-01-19T10:07:54.946Z,99281.49
2023-01-19T10:13:19.768Z,99280.98
2023-01-19T10:18:48.783Z,99285.98
2023-01-19T10:23:54.845Z,99298.05
2023-01-19T10:29:03.086Z,99301.68
2023-01-19T10:34:06.126Z,99303.74
2023-01-19T10:39:13.853Z,99293.58
2023-01-19T10:44:25.677Z,99294.61
2023-01-19T10:49:39.286Z,99297.55
2023-01-19T10:54:43.806Z,99298.59
2023-01-19T10:59:51.154Z,99287.54
2023-01-19T11:04:57.251Z,99281.85
2023-01-19T11:10:25.943Z,99267.20
2023-01-19T11:15:35.955Z,99265.47
2023-01-19T11:20:51.355Z,99272.02
2023-01-19T11:25:58.398Z,99267.89
2023-01-19T11:31:10.362Z,99266.52
2023-01-19T11:36:39.831Z,99269.44
2023-01-19T11:41:43.048Z,99269.27
2023-01-19T11:46:51.147Z,99268.05
2023-01-19T11:52:07.087Z,99264.95
2023-01-19T11:57:13.877Z,99262.37
2023-01-19T12:02:45.057Z,99266.33
2023-01-19T12:07:50.306Z,99262.89
2023-01-19T12:12:54.438Z,99262.55
2023-01-19T12:18:00.810Z,99258.92
2023-01-19T12:23:03.942Z,99260.14
2023-01-19T12:28:12.974Z,99255.65
2023-01-19T12:33:33.603Z,99256.52
2023-01-19T12:38:55.039Z,99258.42
2023-01-19T12:44:10.036Z,99257.90
2023-01-19T12:49:37.806Z,99250.12
2023-01-19T12:54:50.402Z,99248.91
2023-01-19T13:00:02.255Z,99260.13
2023-01-19T13:05:25.726Z,99250.65
2023-01-19T13:10:59.878Z,99251.51
2023-01-19T13:16:30.019Z,99251.34
2023-01-19T13:21:47.566Z,99251.17
2023-01-19T13:26:50.677Z,99254.11
2023-01-19T13:32:02.615Z,99255.48
2023-01-19T13:37:06.639Z,99254.80
2023-01-19T13:42:28.865Z,99257.90
2023-01-19T13:47:39.284Z,99256.17
2023-01-19T13:52:43.491Z,99256.52
2023-01-19T13:57:49.061Z,99257.21
2023-01-19T14:03:10.991Z,99262.55
2023-01-19T14:08:15.779Z,99266.33
2023-01-19T14:13:20.197Z,99272.52
2023-01-19T14:18:31.576Z,99280.09
2023-01-19T14:23:51.705Z,99279.57
2023-01-19T14:28:54.916Z,99279.55
2023-01-19T14:33:58.739Z,99286.60
2023-01-19T14:39:03.234Z,99290.89
2023-01-19T14:44:20.047Z,99294.32
2023-01-19T14:49:34.098Z,99303.27
2023-01-19T14:54:43.029Z,99303.75
2023-01-19T14:59:49.846Z,99307.04
2023-01-19T15:04:55.527Z,99309.44
2023-01-19T15:09:59.492Z,99311.67
2023-01-19T15:15:02.792Z,99315.27
2023-01-19T15:20:13.721Z,99315.61
2023-01-19T15:25:19.796Z,99313.55
2023-01-19T15:30:29.757Z,99307.35
2023-01-19T15:35:32.880Z,99309.23
2023-01-19T15:40:35.990Z,99312.00
2023-01-19T15:45:55.304Z,99316.48
2023-01-19T15:50:58.382Z,99321.13
2023-01-19T15:56:01.394Z,99330.60
2023-01-19T16:01:04.849Z,99345.04
2023-01-19T16:06:08.853Z,99340.58
2023-01-19T16:11:14.919Z,99341.97
2023-01-19T16:16:20.978Z,99347.14
2023-01-19T16:21:24.398Z,99351.29
2023-01-19T16:26:27.557Z,99353.87
2023-01-19T16:31:30.638Z,99357.83
2023-01-19T16:36:35.900Z,99358.86
2023-01-19T16:41:39.307Z,99359.55
2023-01-19T16:46:44.867Z,99360.41
2023-01-19T16:51:49.094Z,99369.52
2023-01-19T16:56:53.340Z,99367.09
2023-01-19T17:01:57.191Z,99362.61
2023-01-19T17:07:00.378Z,99367.42
2023-01-19T17:12:04.264Z,99364.49
2023-01-19T17:17:09.956Z,99367.44
2023-01-19T17:22:14.391Z,99365.37
2023-01-19T17:27:17.514Z,99371.39
2023-01-19T17:32:20.428Z,99371.36
2023-01-19T17:37:23.430Z,99369.64
2023-01-19T17:42:26.747Z,99366.18
2023-01-19T17:47:29.850Z,99365.47
2023-01-19T17:52:33.077Z,99371.48
2023-01-19T17:57:36.648Z,99370.45
2023-01-19T18:02:40.486Z,99365.44
2023-01-19T18:07:43.716Z,99361.83
2023-01-19T18:12:46.628Z,99356.16
2023-01-19T18:17:49.628Z,99352.54
2023-01-19T18:22:52.737Z,99351.84
2023-01-19T18:27:55.641Z,99352.54
2023-01-19T18:32:58.655Z,99352.55
2023-01-19T18:38:01.661Z,99350.33
2023-01-19T18:43:04.767Z,99345.34
2023-01-19T18:48:08.166Z,99349.30
2023-01-19T18:53:11.088Z,99355.34
2023-01-19T18:58:14.096Z,99358.27
2023-01-19T19:03:17.870Z,99356.39
2023-01-19T19:08:20.825Z,99350.20
2023-01-19T19:13:23.823Z,99355.54
2023-01-19T19:18:26.832Z,99361.38
2023-01-19T19:23:29.843Z,99359.45
2023-01-19T19:28:33.627Z,99362.02
2023-01-19T19:33:38.519Z,99364.42
2023-01-19T19:38:43.072Z,99359.05
2023-01-19T19:43:46.169Z,99355.95
2023-01-19T19:48:49.818Z,99362.67
2023-01-19T19:53:55.356Z,99367.34
2023-01-19T19:58:59.661Z,99371.31
2023-01-19T20:04:08.919Z,99376.14
2023-01-19T20:09:14.149Z,99375.45
2023-01-19T20:14:17.303Z,99377.15
2023-01-19T20:19:20.389Z,99374.39
2023-01-19T20:24:23.527Z,99368.85
2023-01-19T20:29:26.643Z,99371.08
2023-01-19T20:34:33.357Z,99376.58
2023-01-19T20:39:37.366Z,99377.40
2023-01-19T20:44:40.473Z,99380.66
2023-01-19T20:49:43.685Z,99381.52
2023-01-19T20:54:46.903Z,99387.88
2023-01-19T20:59:50.125Z,99388.20
2023-01-19T21:04:54.859Z,99387.64
2023-01-19T21:09:58.557Z,99396.02
2023-01-19T21:15:02.319Z,99404.63
2023-01-19T21:20:06.644Z,99402.21
2023-01-19T21:25:10.183Z,99404.11
2023-01-19T21:30:13.471Z,99409.95
2023-01-19T21:35:16.796Z,99414.25
2023-01-19T21:40:19.908Z,99417.35
2023-01-19T21:45:23.332Z,99421.48
2023-01-19T21:50:26.529Z,99432.88
2023-01-19T21:55:30.159Z,99440.32
2023-01-19T22:00:33.251Z,99442.26
2023-01-19T22:05:37.205Z,99444.19
2023-01-19T22:10:40.155Z,99441.82
2023-01-19T22:15:43.090Z,99438.56
2023-01-19T22:20:46.095Z,99444.80
2023-01-19T22:25:49.328Z,99454.84
2023-01-19T22:30:52.638Z,99456.25
2023-01-19T22:35:55.725Z,99453.70
2023-01-19T22:40:58.732Z,99452.52
2023-01-19T22:46:02.482Z,99458.05
2023-01-19T22:51:06.805Z,99459.59
2023-01-19T22:56:11.617Z,99453.73
2023-01-19T23:01:22.929Z,99465.27
2023-01-19T23:06:28.823Z,99470.42
2023-01-19T23:11:43.907Z,99472.83
2023-01-19T23:16:47.521Z,99484.33
2023-01-19T23:21:53.039Z,99494.29
2023-01-19T23:26:55.997Z,99491.20
2023-01-19T23:31:59.211Z,99501.71
2023-01-19T23:37:02.319Z,99505.15
2023-01-19T23:42:06.554Z,99500.69
2023-01-19T23:47:09.760Z,99514.08
2023-01-19T23:52:12.973Z,99517.48
2023-01-19T23:57:15.982Z,99517.60
